Time;durP1;ratioP1;P1;durP2;ratioP2;P2;SDS_P1;SDS_P2;PMS_P1;PMS_P2;Temp;Humidity;BMP_temperature;BMP_pressure;BME280_temperature;BME280_humidity;BME280_pressure;Samples;Min_cycle;Max_cycle;Signal;HPM_P1;HPM_P2
2021/11/24 00:02:06;;;;;;;20.67;11.40;;;3.80;99.90;;;;;;20741666;28;19918;-77
2021/11/24 00:12:07;;;;;;;;;;;3.70;99.90;;;;;;20741156;28;20125;-77
2021/11/24 00:22:07;;;;;;;25.33;11.35;;;3.70;99.90;;;;;;20753361;28;19959;-76
2021/11/24 00:32:08;;;;;;;;;;;3.60;99.90;;;;;;20754812;28;20030;-77
2021/11/24 00:42:09;;;;;;;22.10;11.93;;;3.60;99.90;;;;;;20752741;28;19956;-77
2021/11/24 00:52:10;;;;;;;;;;;3.50;99.90;;;;;;20753108;28;20029;-76
2021/11/24 01:02:11;;;;;;;24.73;12.32;;;3.50;99.90;;;;;;20751938;28;19910;-77
2021/11/24 01:12:12;;;;;;;22.10;11.73;;;3.40;99.90;;;;;;20751062;28;20037;-76
2021/11/24 01:22:13;;;;;;;;;;;3.40;99.90;;;;;;20751093;28;20428;-77
2021/11/24 01:32:13;;;;;;;26.03;12.37;;;3.30;99.90;;;;;;20748971;28;19921;-76
2021/11/24 01:42:16;;;;;;;;;;;3.30;99.90;;;;;;20749677;28;20423;-77
2021/11/24 01:52:17;;;;;;;;;;;3.30;99.90;;;;;;20749181;28;20399;-77
2021/11/24 02:02:18;;;;;;;24.38;11.15;;;3.20;99.90;;;;;;20747367;28;19909;-77
2021/11/24 02:12:19;;;;;;;24.83;12.55;;;3.30;99.90;;;;;;20747312;28;20062;-76
2021/11/24 02:22:20;;;;;;;;;;;3.30;99.90;;;;;;20746682;28;20026;-75
2021/11/24 02:32:21;;;;;;;23.80;11.90;;;3.30;99.90;;;;;;20744113;28;20403;-76
2021/11/24 02:42:21;;;;;;;;;;;3.20;99.90;;;;;;20744968;28;20096;-76
2021/11/24 02:52:23;;;;;;;24.52;11.77;;;3.20;99.90;;;;;;20744345;28;19983;-77
2021/11/24 03:02:26;;;;;;;24.73;12.32;;;3.20;99.90;;;;;;20745464;28;20039;-75
2021/11/24 03:12:27;;;;;;;29.58;13.10;;;3.20;99.90;;;;;;20742796;28;20037;-77
2021/11/24 03:22:28;;;;;;;23.75;12.73;;;3.20;99.90;;;;;;20743282;28;20035;-77
2021/11/24 03:32:29;;;;;;;;;;;3.20;99.90;;;;;;20743311;28;20026;-75
2021/11/24 03:42:30;;;;;;;28.25;12.95;;;3.20;99.90;;;;;;20742456;28;19916;-77
2021/11/24 03:52:31;;;;;;;25.95;12.85;;;3.20;99.90;;;;;;20749486;28;20026;-76
2021/11/24 04:02:31;;;;;;;26.08;12.57;;;3.10;99.90;;;;;;20754964;28;20088;-77
2021/11/24 04:12:32;;;;;;;25.70;12.40;;;3.10;99.90;;;;;;20758572;28;20080;-75
2021/11/24 04:22:34;;;;;;;25.15;12.27;;;3.00;99.90;;;;;;20754486;28;20030;-76
2021/11/24 04:32:35;;;;;;;27.05;13.70;;;3.00;99.90;;;;;;20754401;28;20026;-76
2021/11/24 04:42:38;;;;;;;23.55;12.13;;;3.00;99.90;;;;;;20754613;28;20556;-76
2021/11/24 04:52:39;;;;;;;24.17;12.10;;;3.00;99.90;;;;;;20753675;28;20101;-76
2021/11/24 05:02:39;;;;;;;31.65;12.77;;;3.00;99.90;;;;;;20753103;28;20509;-76
2021/11/24 05:12:41;;;;;;;28.38;12.88;;;3.00;99.90;;;;;;20753024;28;20133;-75
2021/11/24 05:22:42;;;;;;;24.00;11.80;;;2.90;99.90;;;;;;20768820;28;20126;-77
2021/11/24 05:32:43;;;;;;;25.98;12.27;;;2.90;99.90;;;;;;20782897;28;20026;-77
2021/11/24 05:42:49;;;;;;;24.52;12.10;;;2.80;99.90;;;;;;20769900;28;20060;-76
2021/11/24 05:52:50;;;;;;;23.80;10.90;;;2.80;99.90;;;;;;20779305;28;20034;-78
2021/11/24 06:02:50;;;;;;;23.38;12.05;;;2.80;99.90;;;;;;20747162;28;20506;-76
2021/11/24 06:12:51;;;;;;;28.40;12.55;;;2.80;99.90;;;;;;20744238;28;20041;-75
2021/11/24 06:22:52;;;;;;;26.95;11.82;;;2.80;99.90;;;;;;20749347;28;20104;-78
2021/11/24 06:32:53;;;;;;;30.42;13.60;;;2.80;99.90;;;;;;20781662;28;20103;-79
2021/11/24 06:42:54;;;;;;;27.55;12.48;;;2.80;99.90;;;;;;20803973;28;20017;-78
2021/11/24 06:52:55;;;;;;;26.38;12.00;;;2.70;99.90;;;;;;20793053;28;20098;-76
2021/11/24 07:02:56;;;;;;;25.50;11.93;;;2.80;99.90;;;;;;20760605;28;20054;-78
2021/11/24 07:12:57;;;;;;;24.55;11.38;;;2.70;99.90;;;;;;20751243;28;20030;-78
2021/11/24 07:22:58;;;;;;;27.70;12.80;;;2.70;99.90;;;;;;20751402;28;20030;-77
2021/11/24 07:32:59;;;;;;;29.23;12.65;;;2.70;99.90;;;;;;20767039;28;20497;-78
2021/11/24 07:43:00;;;;;;;25.30;11.88;;;2.70;99.90;;;;;;20766381;28;20102;-79
2021/11/24 07:53:01;;;;;;;27.23;13.18;;;2.80;99.90;;;;;;20765651;28;20037;-78
2021/11/24 08:03:02;;;;;;;;;;;2.80;99.90;;;;;;20766454;28;20033;-78
2021/11/24 08:13:02;;;;;;;28.25;11.85;;;2.90;99.90;;;;;;20769376;28;19967;-79
2021/11/24 08:23:04;;;;;;;27.42;12.10;;;2.90;99.90;;;;;;20776340;28;20037;-80
2021/11/24 08:33:05;;;;;;;28.38;13.70;;;3.00;99.90;;;;;;20775085;28;20037;-78
2021/11/24 08:43:06;;;;;;;32.38;15.02;;;3.00;99.90;;;;;;20775093;28;20049;-79
2021/11/24 08:53:06;;;;;;;;;;;3.20;99.90;;;;;;20774973;28;20046;-79
2021/11/24 09:03:10;;;;;;;26.98;13.50;;;3.30;99.90;;;;;;20769732;28;19909;-78
2021/11/24 09:13:11;;;;;;;27.15;13.05;;;3.40;99.90;;;;;;20761859;28;20045;-79
2021/11/24 09:23:14;;;;;;;30.00;12.48;;;3.50;99.90;;;;;;20752683;28;20441;-77
2021/11/24 09:33:16;;;;;;;23.77;11.80;;;3.60;99.90;;;;;;20750411;28;20044;-77
2021/11/24 09:43:18;;;;;;;26.75;12.88;;;3.70;99.90;;;;;;20750939;28;20041;-78
2021/11/24 09:53:21;;;;;;;29.52;13.32;;;3.70;99.90;;;;;;20758572;28;20037;-79
2021/11/24 10:03:22;;;;;;;30.13;13.57;;;3.90;99.90;;;;;;20752989;28;20112;-77
2021/11/24 10:13:23;;;;;;;;;;;4.00;99.90;;;;;;20752208;28;20053;-77
2021/11/24 10:23:39;;;;;;;27.88;11.82;;;4.00;99.90;;;;;;20750027;28;19909;-77
2021/11/24 10:33:40;;;;;;;27.02;12.98;;;4.00;99.90;;;;;;20749029;28;20034;-78
2021/11/24 10:43:45;;;;;;;23.52;11.40;;;4.10;99.90;;;;;;20752850;28;20034;-79
2021/11/24 10:54:23;;;;;;;23.73;12.60;;;4.30;99.90;;;;;;20759640;28;20042;-79
2021/11/24 11:04:24;;;;;;;29.27;13.43;;;4.30;99.90;;;;;;20758168;28;20045;-79
2021/11/24 11:14:29;;;;;;;26.90;12.32;;;4.30;99.90;;;;;;20757556;28;20448;-78
2021/11/24 11:24:30;;;;;;;27.45;12.70;;;4.40;99.90;;;;;;20779296;28;20496;-78
2021/11/24 11:34:32;;;;;;;27.17;12.90;;;4.40;99.90;;;;;;20832668;28;20026;-77
2021/11/24 11:44:33;;;;;;;25.70;13.50;;;4.40;99.90;;;;;;20828701;28;20396;-78
2021/11/24 11:54:34;;;;;;;25.70;12.95;;;4.40;99.90;;;;;;20824531;28;20109;-77
2021/11/24 12:04:37;;;;;;;27.15;12.98;;;4.50;99.90;;;;;;20827373;28;20040;-78
2021/11/24 12:14:47;;;;;;;27.38;12.45;;;4.50;99.90;;;;;;20832508;28;20048;-77
2021/11/24 12:24:48;;;;;;;25.17;12.15;;;4.50;99.90;;;;;;20838024;28;20049;-76
2021/11/24 12:34:53;;;;;;;24.73;12.43;;;4.50;99.90;;;;;;20836192;28;20030;-78
2021/11/24 12:44:54;;;;;;;24.48;11.13;;;4.50;99.90;;;;;;20844434;28;20471;-78
2021/11/24 12:55:01;;;;;;;;;;;4.40;99.90;;;;;;20815138;28;20041;-77
2021/11/24 13:05:05;;;;;;;28.02;12.88;;;4.40;99.90;;;;;;20853007;28;19909;-78
2021/11/24 13:15:07;;;;;;;21.70;10.93;;;4.50;99.90;;;;;;20837065;28;20454;-75
2021/11/24 13:25:14;;;;;;;26.38;13.27;;;4.60;99.90;;;;;;20821097;28;20057;-78
2021/11/24 13:35:15;;;;;;;29.02;12.95;;;4.50;99.90;;;;;;20819145;28;20026;-78
2021/11/24 13:45:30;;;;;;;22.30;11.50;;;4.70;99.90;;;;;;20839823;28;20063;-78
2021/11/24 13:55:31;;;;;;;21.38;10.80;;;4.50;99.90;;;;;;20834955;28;20276;-78
2021/11/24 14:05:36;;;;;;;19.93;10.43;;;4.60;99.90;;;;;;20833558;28;20040;-77
2021/11/24 14:15:37;;;;;;;31.73;11.13;;;4.40;99.90;;;;;;20727507;28;20037;-77
2021/11/24 14:25:37;;;;;;;21.23;10.68;;;4.30;99.90;;;;;;20720920;28;20038;-76
2021/11/24 14:35:39;;;;;;;26.15;11.93;;;4.30;99.90;;;;;;20714807;28;20061;-78
2021/11/24 14:45:40;;;;;;;24.42;11.80;;;4.30;99.90;;;;;;20716260;28;20512;-75
2021/11/24 14:55:42;;;;;;;22.67;11.20;;;4.30;99.90;;;;;;20716987;28;20061;-78
2021/11/24 15:05:43;;;;;;;23.25;12.20;;;4.30;99.90;;;;;;20717494;28;21516;-79
2021/11/24 15:15:45;;;;;;;24.07;11.43;;;4.30;99.90;;;;;;20725948;28;20056;-78
2021/11/24 15:25:46;;;;;;;21.85;11.35;;;4.30;99.90;;;;;;20725227;28;20049;-78
2021/11/24 15:35:48;;;;;;;;;;;4.20;99.90;;;;;;20709842;28;20629;-76
2021/11/24 15:45:49;;;;;;;26.05;11.40;;;4.10;99.90;;;;;;20712751;28;19960;-77
2021/11/24 15:55:51;;;;;;;30.67;11.02;;;4.00;99.90;;;;;;20732255;28;20503;-78
2021/11/24 16:05:52;;;;;;;23.52;11.88;;;4.00;99.90;;;;;;20731635;28;20546;-75
2021/11/24 16:15:53;;;;;;;25.17;12.02;;;3.90;99.90;;;;;;20730214;28;20042;-77
2021/11/24 16:25:54;;;;;;;33.00;14.48;;;3.90;99.90;;;;;;20726192;23;20199;-79
2021/11/24 16:35:54;;;;;;;;;;;3.90;99.90;;;;;;20677378;28;20072;-80
2021/11/24 16:45:56;;;;;;;25.20;12.40;;;3.90;99.90;;;;;;20683306;28;19921;-80
2021/11/24 16:55:56;;;;;;;29.27;12.77;;;3.90;99.90;;;;;;20699086;28;20371;-79
2021/11/24 17:05:57;;;;;;;29.15;13.15;;;3.90;99.90;;;;;;20700510;28;20038;-81
2021/11/24 17:15:58;;;;;;;29.95;14.02;;;3.90;99.90;;;;;;20693843;28;20034;-82
2021/11/24 17:25:59;;;;;;;30.48;14.32;;;4.00;99.90;;;;;;20689747;28;20117;-82
2021/11/24 17:36:00;;;;;;;;;;;3.90;99.90;;;;;;20688228;28;20072;-81
2021/11/24 17:46:03;;;;;;;30.33;14.02;;;3.80;99.90;;;;;;20688631;28;19922;-81
2021/11/24 17:56:05;;;;;;;27.75;13.57;;;3.90;99.90;;;;;;20686179;28;20065;-80
2021/11/24 18:06:05;;;;;;;27.08;14.00;;;3.80;99.90;;;;;;20684548;28;20038;-81
2021/11/24 18:16:06;;;;;;;;;;;3.70;99.90;;;;;;20679209;28;20092;-81
2021/11/24 18:26:07;;;;;;;32.28;13.95;;;3.60;99.90;;;;;;20666695;28;19921;-82
2021/11/24 18:36:08;;;;;;;;;;;3.60;99.90;;;;;;20687464;28;20699;-81
2021/11/24 18:46:10;;;;;;;28.63;12.85;;;3.60;99.90;;;;;;20685778;28;19989;-81
2021/11/24 18:56:11;;;;;;;31.25;14.32;;;3.60;99.90;;;;;;20670905;28;20049;-82
2021/11/24 19:06:13;;;;;;;29.20;13.68;;;3.60;99.90;;;;;;20690517;28;20030;-80
2021/11/24 19:16:14;;;;;;;31.83;15.48;;;3.50;99.90;;;;;;20684337;28;20053;-79
2021/11/24 19:26:15;;;;;;;;;;;3.50;99.90;;;;;;20697036;28;20037;-80
2021/11/24 19:36:16;;;;;;;33.17;15.07;;;3.50;99.90;;;;;;20697163;28;19918;-80
2021/11/24 19:46:17;;;;;;;;;;;3.40;99.90;;;;;;20695711;28;20034;-80
2021/11/24 19:56:20;;;;;;;32.30;14.63;;;3.40;99.90;;;;;;20698927;28;19992;-80
2021/11/24 20:06:21;;;;;;;31.63;14.75;;;3.40;99.90;;;;;;20682382;28;20040;-80
2021/11/24 20:16:22;;;;;;;;;;;3.40;99.90;;;;;;20706527;28;20042;-81
2021/11/24 20:26:23;;;;;;;32.67;15.63;;;3.40;99.90;;;;;;20690847;28;19925;-80
2021/11/24 20:36:24;;;;;;;35.92;16.55;;;3.30;99.90;;;;;;20700884;28;20052;-80
2021/11/24 20:46:25;;;;;;;;;;;3.30;99.90;;;;;;20699551;28;20041;-80
2021/11/24 20:56:29;;;;;;;32.70;14.98;;;3.30;99.90;;;;;;20701542;28;19917;-81
2021/11/24 21:06:30;;;;;;;32.85;16.15;;;3.30;99.90;;;;;;20692564;28;20037;-81
2021/11/24 21:16:31;;;;;;;;;;;3.30;99.90;;;;;;20691836;28;20121;-81
2021/11/24 21:26:32;;;;;;;35.78;16.40;;;3.30;99.90;;;;;;20695777;28;19921;-80
2021/11/24 21:36:33;;;;;;;39.80;17.20;;;3.20;99.90;;;;;;20694999;28;20046;-80
2021/11/24 21:46:34;;;;;;;;;;;3.20;99.90;;;;;;20676717;28;20113;-80
2021/11/24 21:56:35;;;;;;;33.72;15.95;;;3.10;99.90;;;;;;20677736;28;19914;-80
2021/11/24 22:06:59;;;;;;;36.05;14.85;;;3.10;99.90;;;;;;20694419;28;20038;-81
2021/11/24 22:17:06;;;;;;;28.98;13.50;;;2.80;99.90;;;;;;20680641;28;20030;-80
2021/11/24 22:27:06;;;;;;;36.10;15.95;;;2.80;99.90;;;;;;20694270;23;20044;-75
2021/11/24 22:37:07;;;;;;;33.28;15.38;;;2.70;99.90;;;;;;20725657;28;20400;-76
2021/11/24 22:47:10;;;;;;;35.17;15.63;;;2.80;99.90;;;;;;20744953;28;20041;-73
2021/11/24 22:57:10;;;;;;;34.78;16.10;;;2.90;99.90;;;;;;20744226;28;20038;-75
2021/11/24 23:07:11;;;;;;;32.97;14.23;;;2.90;99.90;;;;;;20743811;28;20033;-76
2021/11/24 23:17:12;;;;;;;29.95;14.05;;;2.70;99.90;;;;;;20743322;28;20030;-75
2021/11/24 23:27:13;;;;;;;32.13;14.07;;;2.70;99.90;;;;;;20742749;28;20030;-76
2021/11/24 23:37:14;;;;;;;31.95;14.63;;;2.60;99.90;;;;;;20742782;28;20038;-76
2021/11/24 23:47:15;;;;;;;36.42;15.20;;;2.70;99.90;;;;;;20742230;28;20034;-76
2021/11/24 23:57:16;;;;;;;36.60;16.80;;;2.50;99.90;;;;;;20741862;28;20030;-75
